Airfield :
LOGIN :

Register | Disclaimer

   EN    FR    IT 

 










Legend :    VFR   Marginal VFR   IFR   Intensive IFR   Very Intensive IFR
Visi :
Ceiling :
>= 8 km
>= 3000ft
5 to 8 km
1000 to 3000 ft
1500m to 5 km
500 to 1000 ft
800 to 1500m
200 to 500 ft
< 800m
< 200 ft
Symbols :   Thunderstorms  Fog  Heavy snow  Heavy precipitations  Wind > 20 kt
SIGMETs :     Misc.  Thunderstorms  Icing  Turbulence  Mountain Waves  Volcanic Ashes







- Airport Elevation : 157 ft
- IATA code : LIL
- Download approach charts


LFQQ - Lille Lesquin

CURRENT METAR :
  • 102000Z AUTO 30003KT 240V330 9999 FEW042 04/02 Q1026 BECMG 3000 BR

EXPIRED METARs :
  • 101930Z AUTO 31005KT 9999 FEW043 04/03 Q1026 BECMG 3000 BR
  • 101900Z AUTO 28004KT 9999 FEW046 04/03 Q1026 TEMPO BKN020TCU BECMG 3000 BR
  • 101830Z AUTO 28005KT 9999 FEW048 05/04 Q1026 TEMPO BKN020TCU BECMG 3000 BR
  • 101800Z AUTO 28006KT 9999 FEW025 SCT042 06/05 Q1026 TEMPO 4000 SHRA BKN020TCU
  • 101730Z AUTO 30004KT 9999 FEW014 BKN025 BKN031 06/05 Q1026 TEMPO 4000 SHRA BKN020TCU
  • 101700Z AUTO 28006KT CAVOK 07/06 Q1026 TEMPO 4000 SHRA BKN020TCU

TAF TAF LFQQ
Valid from the 10 at 18:00 until the 12 at 00:00 UTC


101700Z 1018/1124 28007KT 9999 BKN030
PROB30
TEMPO 1018/1020 4000 SHRA BKN020TCU
BECMG 1020/1023 3000 BR
PROB40 1023/1109 0400 FG VV///
BECMG 1109/1112 7000 NSW
BECMG 1117/1119 3000 BR
PROB40 1119/1124 0300 FG VV///
ATIS : +33 3 20 16 19 54
No reported NOTAMs for that airfield.



MET'MAP, your aeronautical weather chart ! - Copyright ORBIFLY December 2007 - Disclaimer

ORBIFLY MET'MAP TEAM :

Programming & Development : Alexandra Zaïnal
Concept & Development : Baudouin d'Aumeries
Co-Development & Prog : Marc-Olivier Méhu
Technical & hardware support : Manuel Goepfert

Contact : metmap@orbifly.com




SOURCES & CREDITS :

   NOAA